Rock Creek, North Carolina
Current Conditions -  °F | °C
As of 1:54 PM on Thursday 27 Nov 2014 (Local Time) from KBUY Reporting Station
Broken Clouds Broken Clouds  
Wind Chill: 43°   Ceiling: 11000
Heat Index: 47°   Visibility: 10mi
Dew Point: 38°   Wind: 8mph
Humidity: 71%   Direction: 300°WNW
Pressure: 30.07"   Gusts: NA
Location:  35.9026°N, 79.4229°W
Report Text: KBUY 271854Z AUTO 30007KT 10SM FEW023 FEW031 BKN110 08/03 A3007 RMK AO2 RAE00 SLP183 P0000 T00830033
Loading
Personal Weather Stations






























Interactive Weather Map New forecast layout! Learn more

10-Day Weather Forecast

Advertisements
Track Severe Weather on mobile